sensor_id;sensor_type;location;lat;lon;timestamp;pressure;altitude;pressure_sealevel;temperature;humidity
15263;BME280;7733;51.554;13.590;2023-11-18T00:01:24;101113.19;;;7.22;84.31
15263;BME280;7733;51.554;13.590;2023-11-18T00:03:50;101112.06;;;7.01;84.39
15263;BME280;7733;51.554;13.590;2023-11-18T00:06:16;101118.00;;;6.90;85.54
15263;BME280;7733;51.554;13.590;2023-11-18T00:08:42;101122.41;;;6.95;85.29
15263;BME280;7733;51.554;13.590;2023-11-18T00:11:09;101128.25;;;6.78;86.16
15263;BME280;7733;51.554;13.590;2023-11-18T00:13:36;101127.50;;;6.85;85.51
15263;BME280;7733;51.554;13.590;2023-11-18T00:16:13;101127.28;;;6.68;85.79
15263;BME280;7733;51.554;13.590;2023-11-18T00:18:41;101128.94;;;6.61;86.18
15263;BME280;7733;51.554;13.590;2023-11-18T00:21:07;101130.78;;;6.70;85.92
15263;BME280;7733;51.554;13.590;2023-11-18T00:23:34;101132.28;;;6.54;87.22
15263;BME280;7733;51.554;13.590;2023-11-18T00:26:00;101140.22;;;6.62;86.55
15263;BME280;7733;51.554;13.590;2023-11-18T00:28:26;101149.63;;;6.52;87.19
15263;BME280;7733;51.554;13.590;2023-11-18T00:30:52;101156.00;;;6.15;87.85
15263;BME280;7733;51.554;13.590;2023-11-18T00:33:18;101154.25;;;6.16;87.78
15263;BME280;7733;51.554;13.590;2023-11-18T00:35:44;101160.34;;;6.16;88.49
15263;BME280;7733;51.554;13.590;2023-11-18T00:38:11;101162.34;;;6.31;87.15
15263;BME280;7733;51.554;13.590;2023-11-18T00:40:37;101163.00;;;6.19;88.09
15263;BME280;7733;51.554;13.590;2023-11-18T00:43:03;101172.22;;;6.00;88.75
15263;BME280;7733;51.554;13.590;2023-11-18T00:45:29;101173.06;;;6.51;87.11
15263;BME280;7733;51.554;13.590;2023-11-18T00:47:55;101177.78;;;6.20;87.64
15263;BME280;7733;51.554;13.590;2023-11-18T00:50:21;101176.25;;;6.33;87.33
15263;BME280;7733;51.554;13.590;2023-11-18T00:52:47;101190.75;;;6.17;87.60
15263;BME280;7733;51.554;13.590;2023-11-18T00:55:14;101190.13;;;6.30;87.89
15263;BME280;7733;51.554;13.590;2023-11-18T00:57:39;101187.41;;;6.24;88.27
15263;BME280;7733;51.554;13.590;2023-11-18T01:00:13;101190.00;;;6.23;87.84
15263;BME280;7733;51.554;13.590;2023-11-18T01:02:44;101194.78;;;6.00;88.47
15263;BME280;7733;51.554;13.590;2023-11-18T01:05:12;101196.84;;;6.19;88.28
15263;BME280;7733;51.554;13.590;2023-11-18T01:07:38;101198.44;;;6.08;88.04
15263;BME280;7733;51.554;13.590;2023-11-18T01:10:05;101191.47;;;6.07;88.63
15263;BME280;7733;51.554;13.590;2023-11-18T01:12:31;101197.44;;;6.01;88.90
15263;BME280;7733;51.554;13.590;2023-11-18T01:14:57;101194.66;;;6.42;87.19
15263;BME280;7733;51.554;13.590;2023-11-18T01:17:23;101199.81;;;6.40;86.48
15263;BME280;7733;51.554;13.590;2023-11-18T01:19:49;101206.56;;;6.28;87.82
15263;BME280;7733;51.554;13.590;2023-11-18T01:22:15;101216.72;;;6.13;88.55
15263;BME280;7733;51.554;13.590;2023-11-18T01:24:44;101216.06;;;6.24;88.04
15263;BME280;7733;51.554;13.590;2023-11-18T01:27:10;101216.22;;;6.33;87.73
15263;BME280;7733;51.554;13.590;2023-11-18T01:29:36;101215.63;;;6.00;88.54
15263;BME280;7733;51.554;13.590;2023-11-18T01:32:02;101210.91;;;5.80;89.65
15263;BME280;7733;51.554;13.590;2023-11-18T01:34:35;101217.41;;;6.01;89.50
15263;BME280;7733;51.554;13.590;2023-11-18T01:37:01;101213.38;;;6.20;88.85
15263;BME280;7733;51.554;13.590;2023-11-18T01:39:27;101209.03;;;6.20;88.22
15263;BME280;7733;51.554;13.590;2023-11-18T01:41:55;101208.28;;;6.26;88.66
15263;BME280;7733;51.554;13.590;2023-11-18T01:44:21;101208.88;;;6.11;88.67
15263;BME280;7733;51.554;13.590;2023-11-18T01:46:50;101212.25;;;6.04;89.85
15263;BME280;7733;51.554;13.590;2023-11-18T01:49:17;101219.56;;;6.26;88.42
15263;BME280;7733;51.554;13.590;2023-11-18T01:51:46;101222.38;;;6.40;87.87
15263;BME280;7733;51.554;13.590;2023-11-18T01:54:14;101232.03;;;6.44;87.24
15263;BME280;7733;51.554;13.590;2023-11-18T01:56:47;101234.50;;;6.36;87.71
15263;BME280;7733;51.554;13.590;2023-11-18T01:59:13;101233.56;;;6.31;87.86
15263;BME280;7733;51.554;13.590;2023-11-18T02:01:52;101224.25;;;6.47;87.49
15263;BME280;7733;51.554;13.590;2023-11-18T02:04:20;101235.06;;;6.70;86.50
15263;BME280;7733;51.554;13.590;2023-11-18T02:06:48;101228.56;;;6.44;86.71
15263;BME280;7733;51.554;13.590;2023-11-18T02:09:16;101228.00;;;6.63;87.12
15263;BME280;7733;51.554;13.590;2023-11-18T02:12:07;101233.69;;;6.40;87.64
15263;BME280;7733;51.554;13.590;2023-11-18T02:14:39;101240.09;;;6.59;86.89
15263;BME280;7733;51.554;13.590;2023-11-18T02:17:07;101234.00;;;6.59;86.88
15263;BME280;7733;51.554;13.590;2023-11-18T02:19:35;101242.44;;;6.43;87.60
15263;BME280;7733;51.554;13.590;2023-11-18T02:22:03;101241.47;;;6.39;87.95
15263;BME280;7733;51.554;13.590;2023-11-18T02:24:33;101240.59;;;6.38;88.78
15263;BME280;7733;51.554;13.590;2023-11-18T02:27:04;101239.66;;;6.33;89.16
15263;BME280;7733;51.554;13.590;2023-11-18T02:29:42;101236.75;;;6.66;88.38
15263;BME280;7733;51.554;13.590;2023-11-18T02:32:49;101235.75;;;6.60;88.05
15263;BME280;7733;51.554;13.590;2023-11-18T02:35:37;101242.63;;;6.55;88.59
15263;BME280;7733;51.554;13.590;2023-11-18T02:38:04;101242.78;;;6.64;88.01
15263;BME280;7733;51.554;13.590;2023-11-18T02:40:39;101244.31;;;6.53;87.93
15263;BME280;7733;51.554;13.590;2023-11-18T02:43:08;101243.53;;;6.57;87.88
15263;BME280;7733;51.554;13.590;2023-11-18T02:45:37;101247.03;;;6.60;87.74
15263;BME280;7733;51.554;13.590;2023-11-18T02:48:06;101243.47;;;6.54;88.15
15263;BME280;7733;51.554;13.590;2023-11-18T02:50:32;101246.69;;;6.93;86.05
15263;BME280;7733;51.554;13.590;2023-11-18T02:53:01;101247.00;;;6.57;87.59
15263;BME280;7733;51.554;13.590;2023-11-18T02:55:26;101242.00;;;6.69;87.23
15263;BME280;7733;51.554;13.590;2023-11-18T02:57:52;101238.63;;;6.24;88.69
15263;BME280;7733;51.554;13.590;2023-11-18T03:00:18;101235.41;;;6.38;89.04
15263;BME280;7733;51.554;13.590;2023-11-18T03:02:45;101235.81;;;6.63;88.20
15263;BME280;7733;51.554;13.590;2023-11-18T03:05:12;101240.78;;;6.48;88.03
15263;BME280;7733;51.554;13.590;2023-11-18T03:07:41;101235.69;;;6.57;88.02
15263;BME280;7733;51.554;13.590;2023-11-18T03:10:08;101233.91;;;6.53;87.71
15263;BME280;7733;51.554;13.590;2023-11-18T03:12:40;101244.94;;;6.38;89.05
15263;BME280;7733;51.554;13.590;2023-11-18T03:15:07;101245.16;;;6.50;88.39
15263;BME280;7733;51.554;13.590;2023-11-18T03:17:35;101257.41;;;6.56;88.24
15263;BME280;7733;51.554;13.590;2023-11-18T03:20:01;101243.66;;;6.64;88.42
15263;BME280;7733;51.554;13.590;2023-11-18T03:22:27;101251.66;;;6.78;87.76
15263;BME280;7733;51.554;13.590;2023-11-18T03:24:53;101256.06;;;6.26;88.90
15263;BME280;7733;51.554;13.590;2023-11-18T03:27:19;101253.03;;;6.55;88.48
15263;BME280;7733;51.554;13.590;2023-11-18T03:29:44;101254.63;;;6.44;88.84
15263;BME280;7733;51.554;13.590;2023-11-18T03:32:11;101254.75;;;6.53;88.69
15263;BME280;7733;51.554;13.590;2023-11-18T03:34:38;101254.50;;;6.37;89.07
15263;BME280;7733;51.554;13.590;2023-11-18T03:37:04;101253.03;;;6.55;88.54
15263;BME280;7733;51.554;13.590;2023-11-18T03:39:29;101253.03;;;6.55;88.48
15263;BME280;7733;51.554;13.590;2023-11-18T03:41:56;101254.25;;;6.77;87.93
15263;BME280;7733;51.554;13.590;2023-11-18T03:44:23;101257.44;;;6.59;87.84
15263;BME280;7733;51.554;13.590;2023-11-18T03:46:51;101263.50;;;6.56;88.71
15263;BME280;7733;51.554;13.590;2023-11-18T03:49:17;101272.31;;;6.63;88.53
15263;BME280;7733;51.554;13.590;2023-11-18T03:51:45;101264.88;;;6.34;89.74
15263;BME280;7733;51.554;13.590;2023-11-18T03:54:10;101260.94;;;6.59;88.85
15263;BME280;7733;51.554;13.590;2023-11-18T03:56:38;101259.06;;;6.51;88.95
15263;BME280;7733;51.554;13.590;2023-11-18T03:59:04;101260.31;;;6.21;89.63
15263;BME280;7733;51.554;13.590;2023-11-18T04:01:30;101257.44;;;6.57;89.01
15263;BME280;7733;51.554;13.590;2023-11-18T04:03:56;101255.19;;;6.27;89.91
15263;BME280;7733;51.554;13.590;2023-11-18T04:06:22;101249.13;;;6.28;90.15
15263;BME280;7733;51.554;13.590;2023-11-18T04:08:50;101257.13;;;6.40;90.13
15263;BME280;7733;51.554;13.590;2023-11-18T04:11:16;101268.91;;;6.67;88.52
15263;BME280;7733;51.554;13.590;2023-11-18T04:13:44;101271.19;;;6.49;89.44
15263;BME280;7733;51.554;13.590;2023-11-18T04:16:13;101273.31;;;6.71;88.62
15263;BME280;7733;51.554;13.590;2023-11-18T04:18:41;101280.34;;;6.78;87.96
15263;BME280;7733;51.554;13.590;2023-11-18T04:21:09;101279.47;;;6.76;87.54
15263;BME280;7733;51.554;13.590;2023-11-18T04:23:37;101290.34;;;6.51;88.46
15263;BME280;7733;51.554;13.590;2023-11-18T04:26:04;101296.72;;;6.68;88.04
15263;BME280;7733;51.554;13.590;2023-11-18T04:28:31;101298.25;;;6.57;88.28
15263;BME280;7733;51.554;13.590;2023-11-18T04:30:57;101295.13;;;6.79;87.85
15263;BME280;7733;51.554;13.590;2023-11-18T04:33:22;101296.56;;;6.59;88.24
15263;BME280;7733;51.554;13.590;2023-11-18T04:35:51;101296.34;;;6.47;89.06
15263;BME280;7733;51.554;13.590;2023-11-18T04:38:17;101307.06;;;6.62;88.75
15263;BME280;7733;51.554;13.590;2023-11-18T04:40:43;101307.81;;;6.08;91.05
15263;BME280;7733;51.554;13.590;2023-11-18T04:43:12;101305.75;;;6.38;90.08
15263;BME280;7733;51.554;13.590;2023-11-18T04:45:38;101304.47;;;6.15;90.58
15263;BME280;7733;51.554;13.590;2023-11-18T04:48:05;101310.50;;;6.13;91.01
15263;BME280;7733;51.554;13.590;2023-11-18T04:50:31;101311.38;;;6.13;90.81
15263;BME280;7733;51.554;13.590;2023-11-18T04:53:00;101304.63;;;6.23;91.18
15263;BME280;7733;51.554;13.590;2023-11-18T04:55:26;101302.16;;;6.30;90.74
15263;BME280;7733;51.554;13.590;2023-11-18T04:57:52;101299.59;;;6.33;89.96
15263;BME280;7733;51.554;13.590;2023-11-18T05:00:18;101299.50;;;6.27;90.52
15263;BME280;7733;51.554;13.590;2023-11-18T05:02:45;101301.13;;;6.22;91.08
15263;BME280;7733;51.554;13.590;2023-11-18T05:05:16;101308.56;;;6.01;91.45
15263;BME280;7733;51.554;13.590;2023-11-18T05:07:43;101311.41;;;6.16;91.18
15263;BME280;7733;51.554;13.590;2023-11-18T05:10:10;101313.28;;;6.22;91.05
15263;BME280;7733;51.554;13.590;2023-11-18T05:12:37;101314.06;;;6.19;91.11
15263;BME280;7733;51.554;13.590;2023-11-18T05:15:04;101310.00;;;6.33;90.60
15263;BME280;7733;51.554;13.590;2023-11-18T05:17:32;101320.88;;;6.11;91.23
15263;BME280;7733;51.554;13.590;2023-11-18T05:19:57;101311.16;;;6.01;91.67
15263;BME280;7733;51.554;13.590;2023-11-18T05:22:23;101313.66;;;5.98;92.07
15263;BME280;7733;51.554;13.590;2023-11-18T05:24:49;101314.53;;;5.97;92.04
15263;BME280;7733;51.554;13.590;2023-11-18T05:27:15;101312.19;;;6.10;92.05
15263;BME280;7733;51.554;13.590;2023-11-18T05:29:43;101317.56;;;6.20;91.38
15263;BME280;7733;51.554;13.590;2023-11-18T05:32:10;101312.09;;;6.04;91.63
15263;BME280;7733;51.554;13.590;2023-11-18T05:34:36;101305.81;;;5.96;91.89
15263;BME280;7733;51.554;13.590;2023-11-18T05:37:02;101305.63;;;6.31;90.98
15263;BME280;7733;51.554;13.590;2023-11-18T05:39:27;101313.31;;;6.23;90.80
15263;BME280;7733;51.554;13.590;2023-11-18T05:41:57;101315.06;;;6.24;91.11
15263;BME280;7733;51.554;13.590;2023-11-18T05:44:23;101318.44;;;6.20;91.44
15263;BME280;7733;51.554;13.590;2023-11-18T05:46:59;101316.88;;;6.28;90.76
15263;BME280;7733;51.554;13.590;2023-11-18T05:49:25;101313.38;;;6.26;90.60
15263;BME280;7733;51.554;13.590;2023-11-18T05:51:51;101323.13;;;6.39;90.12
15263;BME280;7733;51.554;13.590;2023-11-18T05:54:17;101322.75;;;6.18;91.09
15263;BME280;7733;51.554;13.590;2023-11-18T05:56:43;101333.09;;;6.15;91.42
15263;BME280;7733;51.554;13.590;2023-11-18T05:59:09;101339.00;;;6.05;92.15
15263;BME280;7733;51.554;13.590;2023-11-18T06:01:36;101330.41;;;6.09;92.15
15263;BME280;7733;51.554;13.590;2023-11-18T06:04:03;101335.53;;;6.04;92.16
15263;BME280;7733;51.554;13.590;2023-11-18T06:06:29;101336.91;;;5.89;92.90
15263;BME280;7733;51.554;13.590;2023-11-18T06:08:57;101341.28;;;5.90;93.04
15263;BME280;7733;51.554;13.590;2023-11-18T06:11:30;101342.47;;;6.04;92.84
15263;BME280;7733;51.554;13.590;2023-11-18T06:13:57;101331.06;;;6.00;92.42
15263;BME280;7733;51.554;13.590;2023-11-18T06:16:24;101336.38;;;6.03;92.35
15263;BME280;7733;51.554;13.590;2023-11-18T06:18:56;101330.44;;;6.12;92.11
15263;BME280;7733;51.554;13.590;2023-11-18T06:21:24;101328.38;;;5.96;93.23
15263;BME280;7733;51.554;13.590;2023-11-18T06:23:52;101326.38;;;5.83;93.85
15263;BME280;7733;51.554;13.590;2023-11-18T06:26:20;101322.91;;;5.84;93.31
15263;BME280;7733;51.554;13.590;2023-11-18T06:28:48;101324.25;;;6.05;92.69
15263;BME280;7733;51.554;13.590;2023-11-18T06:31:17;101329.28;;;5.98;93.17
15263;BME280;7733;51.554;13.590;2023-11-18T06:33:46;101331.31;;;6.11;92.44
15263;BME280;7733;51.554;13.590;2023-11-18T06:36:16;101333.59;;;5.96;92.45
15263;BME280;7733;51.554;13.590;2023-11-18T06:38:43;101336.97;;;5.90;92.98
15263;BME280;7733;51.554;13.590;2023-11-18T06:41:13;101339.38;;;5.83;93.12
15263;BME280;7733;51.554;13.590;2023-11-18T06:43:42;101344.09;;;6.00;92.65
15263;BME280;7733;51.554;13.590;2023-11-18T06:46:25;101342.16;;;5.90;93.11
15263;BME280;7733;51.554;13.590;2023-11-18T06:48:54;101342.81;;;6.22;91.82
15263;BME280;7733;51.554;13.590;2023-11-18T06:51:23;101346.69;;;6.00;92.83
15263;BME280;7733;51.554;13.590;2023-11-18T06:53:54;101354.16;;;6.24;91.86
15263;BME280;7733;51.554;13.590;2023-11-18T06:56:27;101346.97;;;6.13;92.22
15263;BME280;7733;51.554;13.590;2023-11-18T06:58:54;101353.09;;;6.16;91.99
15263;BME280;7733;51.554;13.590;2023-11-18T07:01:20;101352.09;;;6.08;92.70
15263;BME280;7733;51.554;13.590;2023-11-18T07:03:48;101346.31;;;6.24;91.82
15263;BME280;7733;51.554;13.590;2023-11-18T07:06:20;101345.25;;;6.15;92.02
15263;BME280;7733;51.554;13.590;2023-11-18T07:08:51;101347.78;;;6.10;92.56
15263;BME280;7733;51.554;13.590;2023-11-18T07:11:18;101350.53;;;6.18;91.76
15263;BME280;7733;51.554;13.590;2023-11-18T07:13:45;101353.84;;;6.09;92.22
15263;BME280;7733;51.554;13.590;2023-11-18T07:16:11;101353.38;;;5.88;92.93
15263;BME280;7733;51.554;13.590;2023-11-18T07:18:38;101351.72;;;5.90;92.73
15263;BME280;7733;51.554;13.590;2023-11-18T07:21:05;101355.13;;;5.89;93.34
15263;BME280;7733;51.554;13.590;2023-11-18T07:23:34;101353.63;;;6.00;93.19
15263;BME280;7733;51.554;13.590;2023-11-18T07:26:01;101350.78;;;5.88;92.31
15263;BME280;7733;51.554;13.590;2023-11-18T07:28:27;101348.59;;;6.07;93.24
15263;BME280;7733;51.554;13.590;2023-11-18T07:30:54;101350.50;;;5.75;93.83
15263;BME280;7733;51.554;13.590;2023-11-18T07:33:20;101355.38;;;5.99;92.56
15263;BME280;7733;51.554;13.590;2023-11-18T07:35:48;101357.72;;;5.89;93.44
15263;BME280;7733;51.554;13.590;2023-11-18T07:38:15;101367.53;;;6.00;92.84
15263;BME280;7733;51.554;13.590;2023-11-18T07:40:41;101365.41;;;6.23;91.82
15263;BME280;7733;51.554;13.590;2023-11-18T07:43:12;101371.81;;;5.97;92.68
15263;BME280;7733;51.554;13.590;2023-11-18T07:45:39;101383.88;;;5.92;93.24
15263;BME280;7733;51.554;13.590;2023-11-18T07:48:07;101386.56;;;5.96;92.91
15263;BME280;7733;51.554;13.590;2023-11-18T07:50:44;101389.63;;;5.80;93.27
15263;BME280;7733;51.554;13.590;2023-11-18T07:53:10;101393.50;;;5.97;92.86
15263;BME280;7733;51.554;13.590;2023-11-18T07:55:37;101398.59;;;5.91;93.53
15263;BME280;7733;51.554;13.590;2023-11-18T07:58:09;101399.75;;;6.04;93.03
15263;BME280;7733;51.554;13.590;2023-11-18T08:00:43;101401.78;;;6.20;92.43
15263;BME280;7733;51.554;13.590;2023-11-18T08:03:11;101403.72;;;5.88;93.09
15263;BME280;7733;51.554;13.590;2023-11-18T08:05:43;101398.38;;;6.21;92.86
15263;BME280;7733;51.554;13.590;2023-11-18T08:08:10;101399.13;;;6.17;92.59
15263;BME280;7733;51.554;13.590;2023-11-18T08:10:40;101404.59;;;6.29;92.10
15263;BME280;7733;51.554;13.590;2023-11-18T08:13:07;101405.41;;;6.25;92.61
15263;BME280;7733;51.554;13.590;2023-11-18T08:15:43;101402.81;;;6.27;91.90
15263;BME280;7733;51.554;13.590;2023-11-18T08:18:12;101415.81;;;6.25;91.63
15263;BME280;7733;51.554;13.590;2023-11-18T08:20:39;101418.69;;;6.40;92.02
15263;BME280;7733;51.554;13.590;2023-11-18T08:23:04;101413.41;;;6.36;91.56
15263;BME280;7733;51.554;13.590;2023-11-18T08:25:31;101421.28;;;6.39;90.90
15263;BME280;7733;51.554;13.590;2023-11-18T08:28:00;101422.72;;;6.23;91.83
15263;BME280;7733;51.554;13.590;2023-11-18T08:30:33;101419.41;;;6.32;92.10
15263;BME280;7733;51.554;13.590;2023-11-18T08:33:02;101423.09;;;6.42;91.89
15263;BME280;7733;51.554;13.590;2023-11-18T08:35:30;101422.41;;;6.52;90.51
15263;BME280;7733;51.554;13.590;2023-11-18T08:37:57;101420.41;;;6.38;90.87
15263;BME280;7733;51.554;13.590;2023-11-18T08:40:24;101424.72;;;6.36;91.05
15263;BME280;7733;51.554;13.590;2023-11-18T08:42:52;101421.56;;;6.53;90.88
15263;BME280;7733;51.554;13.590;2023-11-18T08:45:24;101426.34;;;6.77;90.50
15263;BME280;7733;51.554;13.590;2023-11-18T08:48:00;101427.75;;;6.59;91.13
15263;BME280;7733;51.554;13.590;2023-11-18T08:50:33;101430.19;;;6.49;91.93
15263;BME280;7733;51.554;13.590;2023-11-18T08:52:59;101436.66;;;6.69;91.04
15263;BME280;7733;51.554;13.590;2023-11-18T08:55:31;101427.16;;;6.74;91.03
15263;BME280;7733;51.554;13.590;2023-11-18T08:58:07;101440.31;;;6.80;90.85
15263;BME280;7733;51.554;13.590;2023-11-18T09:00:57;101433.09;;;6.64;91.76
15263;BME280;7733;51.554;13.590;2023-11-18T09:03:39;101437.69;;;6.80;91.33
15263;BME280;7733;51.554;13.590;2023-11-18T09:06:17;101431.94;;;6.98;90.40
15263;BME280;7733;51.554;13.590;2023-11-18T09:08:45;101441.06;;;6.73;91.14
15263;BME280;7733;51.554;13.590;2023-11-18T09:11:15;101444.53;;;6.72;91.46
15263;BME280;7733;51.554;13.590;2023-11-18T09:13:44;101436.88;;;6.81;90.88
15263;BME280;7733;51.554;13.590;2023-11-18T09:16:13;101442.47;;;7.01;89.97
15263;BME280;7733;51.554;13.590;2023-11-18T09:18:41;101446.53;;;6.87;90.84
15263;BME280;7733;51.554;13.590;2023-11-18T09:21:08;101452.72;;;6.93;90.31
15263;BME280;7733;51.554;13.590;2023-11-18T09:23:41;101445.94;;;7.01;90.22
15263;BME280;7733;51.554;13.590;2023-11-18T09:26:08;101455.75;;;7.18;89.52
15263;BME280;7733;51.554;13.590;2023-11-18T09:28:37;101468.28;;;6.87;89.70
15263;BME280;7733;51.554;13.590;2023-11-18T09:31:04;101457.41;;;7.13;89.40
15263;BME280;7733;51.554;13.590;2023-11-18T09:33:33;101442.38;;;6.98;89.52
15263;BME280;7733;51.554;13.590;2023-11-18T09:35:59;101439.56;;;7.37;88.76
15263;BME280;7733;51.554;13.590;2023-11-18T09:38:36;101443.75;;;7.26;88.53
15263;BME280;7733;51.554;13.590;2023-11-18T09:41:04;101436.63;;;7.72;88.02
15263;BME280;7733;51.554;13.590;2023-11-18T09:43:36;101440.56;;;7.44;87.82
15263;BME280;7733;51.554;13.590;2023-11-18T09:46:09;101443.16;;;7.42;88.23
15263;BME280;7733;51.554;13.590;2023-11-18T09:49:17;101440.28;;;7.27;87.83
15263;BME280;7733;51.554;13.590;2023-11-18T09:51:55;101442.91;;;7.28;88.45
15263;BME280;7733;51.554;13.590;2023-11-18T09:54:39;101442.34;;;7.46;87.96
15263;BME280;7733;51.554;13.590;2023-11-18T09:57:10;101446.75;;;7.52;87.92
15263;BME280;7733;51.554;13.590;2023-11-18T10:00:12;101440.66;;;7.51;87.90
15263;BME280;7733;51.554;13.590;2023-11-18T10:02:50;101446.19;;;7.73;88.00
15263;BME280;7733;51.554;13.590;2023-11-18T10:05:17;101448.22;;;7.92;86.81
15263;BME280;7733;51.554;13.590;2023-11-18T10:07:47;101447.84;;;7.65;86.82
15263;BME280;7733;51.554;13.590;2023-11-18T10:10:13;101450.75;;;7.86;86.31
15263;BME280;7733;51.554;13.590;2023-11-18T10:12:50;101446.38;;;7.85;86.13
15263;BME280;7733;51.554;13.590;2023-11-18T10:15:22;101443.50;;;7.67;86.27
15263;BME280;7733;51.554;13.590;2023-11-18T10:17:52;101431.66;;;7.90;85.71
15263;BME280;7733;51.554;13.590;2023-11-18T10:23:09;101441.91;;;7.78;85.92
15263;BME280;7733;51.554;13.590;2023-11-18T10:28:35;101445.53;;;7.86;85.51
15263;BME280;7733;51.554;13.590;2023-11-18T10:31:06;101445.78;;;8.04;84.78
15263;BME280;7733;51.554;13.590;2023-11-18T10:33:39;101444.34;;;8.28;84.70
15263;BME280;7733;51.554;13.590;2023-11-18T10:36:19;101442.22;;;8.01;85.40
15263;BME280;7733;51.554;13.590;2023-11-18T10:38:49;101440.41;;;7.93;85.58
15263;BME280;7733;51.554;13.590;2023-11-18T10:41:15;101436.34;;;8.15;84.91
15263;BME280;7733;51.554;13.590;2023-11-18T10:43:45;101442.75;;;8.37;83.90
15263;BME280;7733;51.554;13.590;2023-11-18T10:46:12;101453.66;;;8.07;85.04
15263;BME280;7733;51.554;13.590;2023-11-18T10:48:48;101443.41;;;8.22;84.62
15263;BME280;7733;51.554;13.590;2023-11-18T10:51:19;101449.81;;;8.43;83.93
15263;BME280;7733;51.554;13.590;2023-11-18T10:53:51;101444.94;;;8.07;85.18
15263;BME280;7733;51.554;13.590;2023-11-18T10:56:30;101448.47;;;8.10;84.17
15263;BME280;7733;51.554;13.590;2023-11-18T10:58:56;101445.81;;;8.07;84.63
15263;BME280;7733;51.554;13.590;2023-11-18T11:01:33;101452.31;;;8.37;84.69
15263;BME280;7733;51.554;13.590;2023-11-18T11:04:04;101440.19;;;8.42;83.98
15263;BME280;7733;51.554;13.590;2023-11-18T11:06:33;101443.78;;;8.50;84.33
15263;BME280;7733;51.554;13.590;2023-11-18T11:08:59;101456.41;;;8.18;84.41
15263;BME280;7733;51.554;13.590;2023-11-18T11:11:34;101450.41;;;8.23;84.95
15263;BME280;7733;51.554;13.590;2023-11-18T11:14:04;101448.09;;;8.48;83.63
15263;BME280;7733;51.554;13.590;2023-11-18T11:16:41;101448.69;;;8.26;84.20
15263;BME280;7733;51.554;13.590;2023-11-18T11:19:24;101449.09;;;8.59;83.97
15263;BME280;7733;51.554;13.590;2023-11-18T11:22:05;101447.53;;;8.76;83.48
15263;BME280;7733;51.554;13.590;2023-11-18T11:27:47;101443.16;;;8.72;82.72
15263;BME280;7733;51.554;13.590;2023-11-18T11:30:28;101439.81;;;8.86;82.69
15263;BME280;7733;51.554;13.590;2023-11-18T11:35:54;101429.44;;;8.96;82.63
15263;BME280;7733;51.554;13.590;2023-11-18T11:38:24;101437.03;;;8.72;83.28
15263;BME280;7733;51.554;13.590;2023-11-18T11:40:54;101440.66;;;8.84;82.27
15263;BME280;7733;51.554;13.590;2023-11-18T11:43:20;101436.84;;;8.55;83.16
15263;BME280;7733;51.554;13.590;2023-11-18T11:45:54;101431.53;;;8.46;83.92
15263;BME280;7733;51.554;13.590;2023-11-18T11:48:23;101431.06;;;8.82;81.62
15263;BME280;7733;51.554;13.590;2023-11-18T11:51:31;101419.84;;;8.97;82.05
15263;BME280;7733;51.554;13.590;2023-11-18T11:54:27;101420.50;;;8.76;81.71
15263;BME280;7733;51.554;13.590;2023-11-18T11:56:57;101435.28;;;8.72;82.23
15263;BME280;7733;51.554;13.590;2023-11-18T12:02:22;101418.78;;;8.79;82.79
15263;BME280;7733;51.554;13.590;2023-11-18T12:04:56;101411.88;;;8.83;81.94
15263;BME280;7733;51.554;13.590;2023-11-18T12:07:27;101411.25;;;9.13;81.54
15263;BME280;7733;51.554;13.590;2023-11-18T12:10:00;101407.72;;;9.05;81.09
15263;BME280;7733;51.554;13.590;2023-11-18T12:12:27;101399.13;;;9.23;81.01
15263;BME280;7733;51.554;13.590;2023-11-18T12:14:58;101383.31;;;9.10;80.87
15263;BME280;7733;51.554;13.590;2023-11-18T12:23:10;101369.63;;;9.43;78.89
15263;BME280;7733;51.554;13.590;2023-11-18T12:25:47;101376.31;;;9.06;79.26
15263;BME280;7733;51.554;13.590;2023-11-18T12:28:29;101367.63;;;9.12;78.70
15263;BME280;7733;51.554;13.590;2023-11-18T12:31:04;101359.91;;;9.32;77.99
15263;BME280;7733;51.554;13.590;2023-11-18T12:43:03;101354.69;;;9.30;78.74
15263;BME280;7733;51.554;13.590;2023-11-18T12:45:43;101352.19;;;9.49;77.10
15263;BME280;7733;51.554;13.590;2023-11-18T12:48:20;101350.28;;;9.23;78.47
15263;BME280;7733;51.554;13.590;2023-11-18T12:50:53;101347.66;;;9.23;78.24
15263;BME280;7733;51.554;13.590;2023-11-18T12:53:23;101340.81;;;9.47;77.86
15263;BME280;7733;51.554;13.590;2023-11-18T12:55:50;101340.97;;;9.77;75.59
15263;BME280;7733;51.554;13.590;2023-11-18T12:58:17;101336.56;;;9.70;76.63
15263;BME280;7733;51.554;13.590;2023-11-18T13:00:44;101333.25;;;10.17;74.77
15263;BME280;7733;51.554;13.590;2023-11-18T13:03:10;101341.13;;;10.20;74.47
15263;BME280;7733;51.554;13.590;2023-11-18T13:05:37;101332.38;;;10.09;75.14
15263;BME280;7733;51.554;13.590;2023-11-18T13:08:04;101328.97;;;10.26;73.89
15263;BME280;7733;51.554;13.590;2023-11-18T13:10:30;101323.72;;;10.37;73.79
15263;BME280;7733;51.554;13.590;2023-11-18T13:12:56;101329.00;;;10.45;73.90
15263;BME280;7733;51.554;13.590;2023-11-18T13:15:25;101324.63;;;10.45;73.59
15263;BME280;7733;51.554;13.590;2023-11-18T13:18:03;101314.91;;;10.14;73.97
15263;BME280;7733;51.554;13.590;2023-11-18T13:20:32;101318.41;;;10.17;74.54
15263;BME280;7733;51.554;13.590;2023-11-18T13:23:08;101314.81;;;9.82;75.02
15263;BME280;7733;51.554;13.590;2023-11-18T13:25:37;101321.13;;;10.43;73.93
15263;BME280;7733;51.554;13.590;2023-11-18T13:28:07;101330.63;;;10.17;73.53
15263;BME280;7733;51.554;13.590;2023-11-18T13:30:35;101335.84;;;10.06;73.63
15263;BME280;7733;51.554;13.590;2023-11-18T13:33:01;101345.41;;;9.90;73.90
15263;BME280;7733;51.554;13.590;2023-11-18T13:35:27;101338.50;;;10.17;73.74
15263;BME280;7733;51.554;13.590;2023-11-18T13:37:54;101332.47;;;10.36;72.43
15263;BME280;7733;51.554;13.590;2023-11-18T13:40:20;101334.09;;;10.05;74.07
15263;BME280;7733;51.554;13.590;2023-11-18T13:42:46;101329.69;;;9.99;74.44